Time;durP1;ratioP1;P1;durP2;ratioP2;P2;SDS_P1;SDS_P2;PMS_P1;PMS_P2;Temp;Humidity;BMP_temperature;BMP_pressure;BME280_temperature;BME280_humidity;BME280_pressure;Samples;Min_cycle;Max_cycle;Signal;HPM_P1;HPM_P2
2021/08/04 00:02:10;;;;;;;1.60;1.10;;;16.80;99.90;;;;;;5039691;28;20112;-91
2021/08/04 00:04:35;;;;;;;1.20;1.10;;;16.90;99.90;;;;;;5040276;28;20017;-90
2021/08/04 00:07:01;;;;;;;1.73;1.10;;;17.00;99.90;;;;;;5039272;28;20025;-91
2021/08/04 00:09:27;;;;;;;1.83;1.17;;;17.00;99.90;;;;;;5039557;28;20532;-91
2021/08/04 00:11:53;;;;;;;4.90;1.10;;;17.00;99.90;;;;;;5039812;28;20029;-92
2021/08/04 00:14:19;;;;;;;2.38;1.10;;;17.00;99.90;;;;;;5039783;28;20021;-92
2021/08/04 00:16:44;;;;;;;4.78;1.25;;;17.10;99.90;;;;;;5039467;28;20021;-91
2021/08/04 00:19:10;;;;;;;3.10;1.20;;;17.10;99.90;;;;;;5039394;28;20025;-92
2021/08/04 00:21:36;;;;;;;3.33;1.15;;;17.10;99.90;;;;;;5039233;28;20025;-91
2021/08/04 00:24:02;;;;;;;1.30;1.15;;;17.10;99.90;;;;;;5039609;28;20078;-93
2021/08/04 00:26:27;;;;;;;1.27;0.90;;;17.00;99.90;;;;;;5039292;28;20032;-91
2021/08/04 00:28:56;;;;;;;2.53;1.00;;;17.10;99.90;;;;;;5039518;28;20037;-92
2021/08/04 00:31:21;;;;;;;1.45;1.25;;;16.90;99.90;;;;;;5039814;28;20029;-91
2021/08/04 00:33:47;;;;;;;1.60;1.10;;;17.00;99.90;;;;;;5039145;28;20078;-92
2021/08/04 00:36:13;;;;;;;3.88;1.60;;;17.00;99.90;;;;;;5039075;28;20499;-91
2021/08/04 00:38:39;;;;;;;1.70;1.13;;;17.10;99.90;;;;;;5036768;28;20021;-91
2021/08/04 00:41:05;;;;;;;2.53;1.20;;;17.10;99.90;;;;;;5028696;28;20128;-92
2021/08/04 00:43:31;;;;;;;1.65;1.15;;;17.10;99.90;;;;;;5031226;28;20044;-92
2021/08/04 00:45:57;;;;;;;2.95;1.20;;;17.20;99.90;;;;;;5027872;28;20378;-92
2021/08/04 00:48:22;;;;;;;2.35;1.38;;;17.20;99.90;;;;;;5041138;28;20055;-92
2021/08/04 00:50:48;;;;;;;1.65;1.00;;;17.00;99.90;;;;;;5022085;28;20019;-91
2021/08/04 00:53:28;;;;;;;1.40;1.15;;;17.10;99.90;;;;;;5020129;28;20469;-91
2021/08/04 00:55:59;;;;;;;1.65;1.20;;;17.20;99.90;;;;;;5019550;28;20022;-92
2021/08/04 00:58:40;;;;;;;1.70;1.02;;;17.00;99.90;;;;;;5020052;28;20025;-91
2021/08/04 01:01:13;;;;;;;2.53;1.10;;;17.00;99.90;;;;;;5002650;28;20057;-91
2021/08/04 01:03:43;;;;;;;4.32;1.40;;;16.70;99.90;;;;;;5018905;28;20025;-92
2021/08/04 01:06:42;;;;;;;1.90;1.30;;;16.80;99.90;;;;;;5018961;28;20028;-91
2021/08/04 01:09:10;;;;;;;3.65;1.25;;;16.80;99.90;;;;;;5010024;28;20029;-91
2021/08/04 01:11:38;;;;;;;1.85;1.17;;;16.80;99.90;;;;;;5019751;28;20030;-91
2021/08/04 01:14:19;;;;;;;7.40;1.38;;;16.70;99.90;;;;;;5018910;28;20071;-92
2021/08/04 01:16:46;;;;;;;2.13;1.30;;;16.40;99.90;;;;;;5018966;28;20030;-91
2021/08/04 01:19:26;;;;;;;1.38;1.17;;;16.60;99.90;;;;;;5018845;28;20032;-91
2021/08/04 01:22:08;;;;;;;1.88;1.40;;;16.60;99.90;;;;;;5017598;28;20362;-91
2021/08/04 01:24:58;;;;;;;2.15;1.27;;;16.60;99.90;;;;;;5018108;28;20056;-92
2021/08/04 01:27:26;;;;;;;2.22;1.15;;;16.60;99.90;;;;;;5018441;28;20049;-91
2021/08/04 01:29:53;;;;;;;1.88;1.23;;;16.70;99.90;;;;;;5017879;28;20136;-90
2021/08/04 01:32:20;;;;;;;5.35;1.38;;;16.80;99.90;;;;;;5017603;28;20029;-92
2021/08/04 01:34:46;;;;;;;4.45;1.10;;;16.60;99.90;;;;;;5017067;28;20112;-92
2021/08/04 01:37:14;;;;;;;2.08;1.30;;;16.60;99.90;;;;;;5017244;28;20113;-93
2021/08/04 01:39:40;;;;;;;1.38;1.08;;;16.60;99.90;;;;;;5026840;28;20037;-90
2021/08/04 01:42:06;;;;;;;1.50;1.10;;;16.60;99.90;;;;;;5036453;28;20017;-91
2021/08/04 01:44:34;;;;;;;4.75;1.30;;;16.70;99.90;;;;;;5036575;28;20029;-91
2021/08/04 01:47:00;;;;;;;2.75;1.67;;;16.60;99.90;;;;;;5036508;28;20435;-91
2021/08/04 01:49:30;;;;;;;2.15;1.25;;;16.70;99.90;;;;;;5036666;28;20025;-91
2021/08/04 01:51:57;;;;;;;2.75;1.40;;;16.60;99.90;;;;;;5036271;28;20029;-92
2021/08/04 01:54:25;;;;;;;3.47;1.13;;;16.70;99.90;;;;;;5036297;28;20078;-90
2021/08/04 01:56:51;;;;;;;1.90;1.30;;;16.70;99.90;;;;;;5036613;28;20024;-91
2021/08/04 01:59:21;;;;;;;3.90;1.38;;;16.60;99.90;;;;;;5036304;28;20025;-92
2021/08/04 02:01:47;;;;;;;2.75;1.30;;;16.70;99.90;;;;;;5036159;28;20553;-91
2021/08/04 02:04:13;;;;;;;2.45;1.15;;;16.60;99.90;;;;;;5036209;28;20028;-90
2021/08/04 02:06:50;;;;;;;3.45;1.27;;;16.60;99.90;;;;;;5036214;28;20021;-91
2021/08/04 02:09:40;;;;;;;4.10;1.38;;;16.50;99.90;;;;;;5036153;28;20032;-91
2021/08/04 02:12:09;;;;;;;4.07;1.60;;;16.50;99.90;;;;;;5036133;28;20153;-91
2021/08/04 02:14:53;;;;;;;1.70;1.20;;;16.40;99.90;;;;;;5036418;28;20017;-91
2021/08/04 02:17:28;;;;;;;4.75;1.30;;;16.30;99.90;;;;;;5036144;28;20021;-92
2021/08/04 02:20:09;;;;;;;2.03;1.05;;;16.20;99.90;;;;;;5036594;28;20469;-92
2021/08/04 02:22:48;;;;;;;3.63;1.40;;;16.20;99.90;;;;;;5036058;28;20021;-91
2021/08/04 02:25:28;;;;;;;4.30;1.30;;;16.50;99.90;;;;;;5036131;28;20028;-91
2021/08/04 02:27:56;;;;;;;2.08;1.40;;;16.60;99.90;;;;;;5036817;28;20021;-91
2021/08/04 02:30:23;;;;;;;7.28;1.50;;;16.70;99.90;;;;;;5035827;28;20486;-91
2021/08/04 02:32:51;;;;;;;3.22;1.33;;;16.60;99.90;;;;;;5038667;28;20070;-92
2021/08/04 02:35:17;;;;;;;3.88;1.20;;;16.40;99.90;;;;;;5039864;28;20366;-91
2021/08/04 02:37:44;;;;;;;1.88;1.27;;;16.40;99.90;;;;;;5039701;28;20040;-91
2021/08/04 02:40:11;;;;;;;2.10;1.48;;;16.40;99.90;;;;;;5039446;28;20053;-92
2021/08/04 02:42:37;;;;;;;1.92;1.27;;;16.50;99.90;;;;;;5039610;28;20032;-92
2021/08/04 02:45:04;;;;;;;2.92;1.10;;;16.50;99.90;;;;;;5039637;28;20037;-91
2021/08/04 02:47:31;;;;;;;1.70;1.42;;;16.40;99.90;;;;;;5039624;28;20067;-92
2021/08/04 02:49:59;;;;;;;3.63;1.23;;;16.30;99.90;;;;;;5057401;28;20026;-92
2021/08/04 02:52:25;;;;;;;1.25;1.15;;;16.10;99.90;;;;;;5044209;28;20021;-91
2021/08/04 02:54:51;;;;;;;2.05;1.10;;;16.00;99.90;;;;;;5052856;28;20032;-91
2021/08/04 02:57:16;;;;;;;2.90;1.38;;;16.00;99.90;;;;;;5053420;28;20021;-91
2021/08/04 02:59:42;;;;;;;4.75;1.40;;;16.10;99.90;;;;;;5042882;28;20029;-91
2021/08/04 03:02:08;;;;;;;3.95;1.60;;;16.00;99.90;;;;;;5041116;28;20023;-92
2021/08/04 03:04:34;;;;;;;1.92;1.20;;;15.90;99.90;;;;;;5039540;28;20051;-91
2021/08/04 03:06:59;;;;;;;3.13;1.40;;;16.00;99.90;;;;;;5039230;28;20021;-92
2021/08/04 03:09:25;;;;;;;2.08;1.40;;;16.00;99.90;;;;;;5039248;28;20384;-91
2021/08/04 03:11:51;;;;;;;2.60;1.27;;;16.10;99.90;;;;;;5039005;28;20078;-92
2021/08/04 03:14:17;;;;;;;3.65;1.63;;;16.10;99.90;;;;;;5039963;28;20457;-92
2021/08/04 03:16:42;;;;;;;2.28;1.55;;;16.20;99.90;;;;;;5039037;28;20040;-92
2021/08/04 03:19:08;;;;;;;7.43;1.50;;;16.20;99.90;;;;;;5039047;28;20028;-92
2021/08/04 03:21:34;;;;;;;4.65;1.52;;;16.00;99.90;;;;;;5038924;28;20396;-91
2021/08/04 03:24:03;;;;;;;3.08;1.60;;;16.10;99.90;;;;;;5038771;28;20070;-92
2021/08/04 03:26:29;;;;;;;2.95;1.50;;;16.00;99.90;;;;;;5039247;28;20064;-91
2021/08/04 03:28:55;;;;;;;3.50;1.23;;;16.00;99.90;;;;;;5039001;28;20090;-91
2021/08/04 03:31:20;;;;;;;1.60;1.23;;;16.00;99.90;;;;;;5038648;28;20025;-91
2021/08/04 03:33:46;;;;;;;3.10;1.85;;;16.00;99.90;;;;;;5038995;28;20017;-91
2021/08/04 03:36:12;;;;;;;1.17;1.02;;;16.00;99.90;;;;;;5038607;28;20025;-91
2021/08/04 03:38:37;;;;;;;2.30;1.50;;;16.00;99.90;;;;;;5037059;28;20499;-91
2021/08/04 03:41:06;;;;;;;2.58;1.25;;;16.00;99.90;;;;;;5018875;28;20037;-91
2021/08/04 03:43:33;;;;;;;1.90;1.40;;;16.00;99.90;;;;;;5018147;28;20459;-92
2021/08/04 03:45:59;;;;;;;2.58;1.45;;;16.00;99.90;;;;;;5018802;28;20030;-92
2021/08/04 03:48:25;;;;;;;5.72;1.50;;;16.10;99.90;;;;;;5018792;28;20037;-91
2021/08/04 03:50:51;;;;;;;3.95;1.40;;;16.00;99.90;;;;;;5018670;28;20113;-91
2021/08/04 03:53:16;;;;;;;2.42;1.50;;;16.00;99.90;;;;;;5018723;28;20029;-91
2021/08/04 03:55:42;;;;;;;3.13;1.50;;;16.00;99.90;;;;;;5036839;28;20124;-92
2021/08/04 03:58:08;;;;;;;2.28;1.60;;;16.10;99.90;;;;;;5018464;28;20029;-92
2021/08/04 04:00:34;;;;;;;2.40;1.67;;;15.90;99.90;;;;;;5001864;28;20124;-91
2021/08/04 04:03:00;;;;;;;3.45;1.60;;;16.10;99.90;;;;;;5018572;28;20029;-92
2021/08/04 04:05:26;;;;;;;3.95;1.50;;;16.20;99.90;;;;;;5018798;28;20053;-92
2021/08/04 04:07:51;;;;;;;3.80;1.48;;;16.20;99.90;;;;;;5018501;28;20025;-91
2021/08/04 04:10:17;;;;;;;3.88;1.55;;;16.10;99.90;;;;;;5018304;28;20095;-91
2021/08/04 04:12:43;;;;;;;3.15;1.45;;;16.00;99.90;;;;;;5018370;28;20029;-92
2021/08/04 04:15:09;;;;;;;1.88;1.40;;;16.00;99.90;;;;;;5018312;28;20029;-91
2021/08/04 04:17:35;;;;;;;2.22;1.30;;;15.90;99.90;;;;;;5018411;28;20018;-91
2021/08/04 04:20:01;;;;;;;5.53;1.83;;;16.00;99.90;;;;;;5018112;28;20025;-91
2021/08/04 04:22:27;;;;;;;3.10;1.40;;;16.00;99.90;;;;;;5018103;28;20025;-91
2021/08/04 04:24:52;;;;;;;2.17;1.58;;;15.80;99.90;;;;;;5035660;28;20017;-91
2021/08/04 04:27:18;;;;;;;4.00;1.40;;;15.80;99.90;;;;;;5018474;28;20109;-91
2021/08/04 04:29:44;;;;;;;4.15;1.52;;;15.90;99.90;;;;;;5018268;28;20018;-92
2021/08/04 04:32:10;;;;;;;4.65;1.73;;;16.00;99.90;;;;;;5018166;28;20469;-91
2021/08/04 04:34:36;;;;;;;4.45;1.63;;;16.10;99.90;;;;;;5018383;28;20500;-92
2021/08/04 04:37:02;;;;;;;4.00;1.60;;;15.90;99.90;;;;;;5018031;28;20148;-91
2021/08/04 04:39:28;;;;;;;2.78;1.63;;;15.90;99.90;;;;;;5035420;28;20064;-91
2021/08/04 04:41:53;;;;;;;3.95;1.40;;;15.90;99.90;;;;;;5017783;28;20029;-91
2021/08/04 04:44:19;;;;;;;3.13;1.50;;;15.80;99.90;;;;;;5017945;28;20378;-92
2021/08/04 04:46:45;;;;;;;5.82;1.63;;;15.80;99.90;;;;;;5018183;28;20168;-92
2021/08/04 04:49:10;;;;;;;1.90;1.60;;;15.80;99.90;;;;;;5018021;28;20029;-91
2021/08/04 04:51:36;;;;;;;3.28;1.58;;;15.90;99.90;;;;;;5017558;28;20102;-91
2021/08/04 04:54:02;;;;;;;2.65;1.33;;;15.70;99.90;;;;;;5017746;28;20021;-91
2021/08/04 04:56:28;;;;;;;3.60;1.60;;;15.90;99.90;;;;;;5017323;28;20477;-91
2021/08/04 04:58:54;;;;;;;3.72;1.40;;;16.20;99.90;;;;;;5017633;28;20031;-91
2021/08/04 05:01:21;;;;;;;2.22;1.50;;;16.30;99.90;;;;;;5017514;28;20025;-91
2021/08/04 05:03:47;;;;;;;4.30;1.77;;;16.40;99.90;;;;;;5017215;28;20083;-92
2021/08/04 05:06:12;;;;;;;1.52;1.30;;;16.50;99.90;;;;;;5025779;28;20218;-91
2021/08/04 05:08:38;;;;;;;5.22;1.40;;;16.60;99.90;;;;;;5030413;28;20025;-92
2021/08/04 05:11:04;;;;;;;4.00;1.42;;;16.60;99.90;;;;;;5028790;28;20025;-91
2021/08/04 05:13:30;;;;;;;3.28;1.48;;;16.40;99.90;;;;;;5020173;28;20029;-93
2021/08/04 05:15:56;;;;;;;4.13;1.60;;;16.40;99.90;;;;;;5036212;28;20099;-92
2021/08/04 05:18:21;;;;;;;4.63;1.50;;;16.30;99.90;;;;;;5035557;28;20110;-92
2021/08/04 05:20:47;;;;;;;5.38;1.95;;;16.30;99.90;;;;;;5017560;28;20036;-91
2021/08/04 05:23:13;;;;;;;2.30;1.80;;;16.30;99.90;;;;;;5017338;28;20385;-92
2021/08/04 05:25:39;;;;;;;2.92;1.40;;;16.40;99.90;;;;;;5018092;28;20025;-91
2021/08/04 05:28:05;;;;;;;1.90;1.30;;;16.40;99.90;;;;;;5017036;28;20029;-92
2021/08/04 05:30:31;;;;;;;5.28;1.67;;;16.50;99.90;;;;;;5017138;28;20549;-91
2021/08/04 05:32:57;;;;;;;3.95;1.55;;;16.60;99.90;;;;;;5035036;28;20014;-91
2021/08/04 05:35:23;;;;;;;3.67;1.40;;;16.70;99.90;;;;;;5016886;28;20025;-91
2021/08/04 05:37:48;;;;;;;3.97;1.77;;;16.80;99.90;;;;;;5017039;28;20116;-92
2021/08/04 05:40:15;;;;;;;5.28;1.80;;;16.80;99.90;;;;;;5031210;28;20057;-91
2021/08/04 05:42:40;;;;;;;4.00;1.65;;;16.50;99.90;;;;;;5054403;28;20021;-91
2021/08/04 05:45:07;;;;;;;2.95;1.50;;;16.50;99.90;;;;;;5036788;28;20025;-91
2021/08/04 05:47:33;;;;;;;7.65;1.70;;;16.50;99.90;;;;;;5036634;28;20108;-92
2021/08/04 05:49:59;;;;;;;3.25;1.67;;;16.40;99.90;;;;;;5036509;28;20429;-92
2021/08/04 05:52:26;;;;;;;4.47;1.70;;;16.40;99.90;;;;;;5036651;28;20021;-94
2021/08/04 05:54:51;;;;;;;4.45;1.63;;;16.50;99.90;;;;;;5036666;28;20094;-90
2021/08/04 05:57:17;;;;;;;3.40;1.48;;;16.50;99.90;;;;;;5054643;28;20487;-92
2021/08/04 05:59:43;;;;;;;3.30;1.75;;;16.50;99.90;;;;;;5036449;28;20025;-91
2021/08/04 06:02:10;;;;;;;4.18;1.63;;;16.40;99.90;;;;;;5036615;28;20036;-94
2021/08/04 06:04:36;;;;;;;2.33;1.70;;;16.50;99.90;;;;;;5036725;28;20040;-92
2021/08/04 06:07:01;;;;;;;3.95;1.80;;;16.60;99.90;;;;;;5035911;28;20028;-92
2021/08/04 06:09:29;;;;;;;3.33;1.50;;;16.70;99.90;;;;;;5036337;28;20028;-93
2021/08/04 06:11:55;;;;;;;2.67;1.35;;;16.80;99.90;;;;;;5036378;28;20024;-94
2021/08/04 06:14:21;;;;;;;1.63;1.27;;;16.70;99.90;;;;;;5036613;28;20075;-93
2021/08/04 06:16:46;;;;;;;2.85;1.52;;;16.60;99.90;;;;;;5036428;28;20033;-92
2021/08/04 06:19:12;;;;;;;3.38;1.60;;;16.40;99.90;;;;;;5037257;28;20048;-91
2021/08/04 06:21:38;;;;;;;3.28;1.63;;;16.60;99.90;;;;;;5036218;28;20423;-91
2021/08/04 06:24:04;;;;;;;3.72;1.80;;;16.70;99.90;;;;;;5035943;28;20128;-92
2021/08/04 06:26:30;;;;;;;4.13;1.77;;;16.90;99.90;;;;;;5035989;28;20078;-92
2021/08/04 06:28:55;;;;;;;3.33;1.40;;;16.90;99.90;;;;;;5036024;28;20107;-91
2021/08/04 06:31:21;;;;;;;2.22;1.30;;;16.80;99.90;;;;;;5035884;28;20021;-92
2021/08/04 06:33:47;;;;;;;3.22;1.50;;;16.90;99.90;;;;;;5036079;28;20017;-93
2021/08/04 06:36:13;;;;;;;2.55;1.33;;;17.00;99.90;;;;;;5036023;28;20021;-92
2021/08/04 06:38:38;;;;;;;4.13;1.88;;;17.10;99.90;;;;;;5034207;28;20024;-92
2021/08/04 06:41:04;;;;;;;3.22;1.42;;;17.30;99.90;;;;;;5016159;28;20029;-92
2021/08/04 06:43:30;;;;;;;2.25;1.50;;;17.40;99.90;;;;;;5016203;28;20025;-92
2021/08/04 06:45:56;;;;;;;4.72;1.70;;;17.50;99.90;;;;;;5015891;28;20481;-92
2021/08/04 06:48:22;;;;;;;3.30;1.50;;;17.60;99.90;;;;;;5016427;28;20036;-92
2021/08/04 06:50:47;;;;;;;3.05;1.65;;;17.70;99.90;;;;;;5017206;28;20030;-89
2021/08/04 06:53:13;;;;;;;2.60;1.60;;;17.70;99.90;;;;;;5015175;28;20432;-90
2021/08/04 06:55:39;;;;;;;3.42;1.60;;;17.90;99.90;;;;;;5015427;28;20026;-89
2021/08/04 06:58:05;;;;;;;2.58;1.58;;;18.10;99.90;;;;;;5015273;28;20481;-91
2021/08/04 07:00:30;;;;;;;2.75;1.80;;;18.30;99.90;;;;;;5016466;28;20022;-90
2021/08/04 07:02:56;;;;;;;1.80;1.40;;;18.30;99.90;;;;;;5015274;28;20021;-89
2021/08/04 07:05:22;;;;;;;1.63;1.30;;;18.30;99.90;;;;;;5032977;28;20107;-91
2021/08/04 07:07:47;;;;;;;6.47;1.52;;;18.40;99.90;;;;;;5015172;28;20386;-90
2021/08/04 07:10:14;;;;;;;4.00;1.30;;;19.00;99.90;;;;;;5015176;28;20037;-89
2021/08/04 07:12:39;;;;;;;2.35;1.50;;;18.60;99.90;;;;;;5015169;28;20492;-90
2021/08/04 07:15:06;;;;;;;2.95;1.65;;;18.60;99.90;;;;;;5015496;28;20119;-91
2021/08/04 07:17:43;;;;;;;4.35;1.75;;;18.60;99.90;;;;;;5015892;28;20056;-90
2021/08/04 07:20:09;;;;;;;1.80;1.45;;;18.40;99.90;;;;;;5025418;28;20045;-90
2021/08/04 07:22:35;;;;;;;3.78;1.30;;;18.40;99.90;;;;;;5025155;28;20044;-90
2021/08/04 07:25:01;;;;;;;2.28;1.40;;;18.50;99.90;;;;;;5021564;28;20473;-90
2021/08/04 07:27:26;;;;;;;2.72;1.73;;;18.70;99.90;;;;;;5036822;28;20029;-90
2021/08/04 07:29:52;;;;;;;2.75;1.85;;;18.60;99.90;;;;;;5018602;28;20021;-89
2021/08/04 07:32:19;;;;;;;2.15;1.55;;;18.80;99.90;;;;;;5018232;28;20053;-90
2021/08/04 07:34:45;;;;;;;2.67;1.48;;;18.90;99.90;;;;;;5036098;28;20096;-89
2021/08/04 07:37:10;;;;;;;2.33;1.50;;;18.90;99.90;;;;;;5035995;28;20503;-87
2021/08/04 07:39:36;;;;;;;2.85;1.50;;;19.00;99.90;;;;;;5027601;28;20041;-90
2021/08/04 07:42:02;;;;;;;1.77;1.20;;;19.10;99.90;;;;;;5037957;28;20025;-87
2021/08/04 07:44:28;;;;;;;1.75;1.30;;;19.10;99.90;;;;;;5037879;28;20028;-88
2021/08/04 07:46:54;;;;;;;1.25;1.00;;;19.20;99.90;;;;;;5037927;28;20040;-89
2021/08/04 07:49:22;;;;;;;3.17;1.20;;;19.20;99.90;;;;;;5037931;28;20032;-88
2021/08/04 07:51:48;;;;;;;2.80;1.30;;;19.30;99.90;;;;;;5037553;28;20040;-87
2021/08/04 07:54:13;;;;;;;1.75;1.40;;;19.30;99.90;;;;;;5037584;28;20488;-87
2021/08/04 07:56:39;;;;;;;2.03;1.27;;;19.20;99.90;;;;;;5037631;28;20024;-86
2021/08/04 07:59:06;;;;;;;2.92;1.50;;;19.30;99.90;;;;;;5037455;28;20056;-87
2021/08/04 08:01:32;;;;;;;1.60;1.20;;;19.30;99.90;;;;;;5037439;28;20106;-89
2021/08/04 08:03:57;;;;;;;2.10;1.35;;;19.30;99.90;;;;;;5038221;28;20029;-87
2021/08/04 08:06:23;;;;;;;2.17;1.50;;;19.20;99.90;;;;;;5037415;28;20119;-88
2021/08/04 08:08:49;;;;;;;2.40;1.17;;;19.00;99.90;;;;;;5037749;28;20044;-88
2021/08/04 08:11:14;;;;;;;1.63;1.25;;;19.10;99.90;;;;;;5037090;28;20036;-87
2021/08/04 08:13:40;;;;;;;1.40;1.10;;;18.90;99.90;;;;;;5055380;28;20075;-88
2021/08/04 08:16:06;;;;;;;2.80;1.50;;;19.10;99.90;;;;;;5038104;28;20029;-88
2021/08/04 08:18:32;;;;;;;2.85;1.10;;;19.00;99.90;;;;;;5055016;28;20034;-87
2021/08/04 08:20:58;;;;;;;1.50;1.13;;;18.90;99.90;;;;;;5054978;28;20029;-88
2021/08/04 08:23:23;;;;;;;2.65;1.20;;;19.00;99.90;;;;;;5037009;28;20078;-88
2021/08/04 08:25:49;;;;;;;2.33;1.50;;;19.00;99.90;;;;;;5037023;28;20369;-88
2021/08/04 08:28:16;;;;;;;2.92;1.60;;;18.90;99.90;;;;;;5036929;28;20028;-90
2021/08/04 08:30:42;;;;;;;2.20;1.20;;;18.90;99.90;;;;;;5036429;28;20526;-88
2021/08/04 08:33:08;;;;;;;2.33;1.30;;;19.10;99.90;;;;;;5036798;28;20461;-88
2021/08/04 08:35:34;;;;;;;2.15;1.40;;;19.10;99.90;;;;;;5036645;28;20029;-88
2021/08/04 08:38:00;;;;;;;2.47;1.33;;;19.10;99.90;;;;;;5036618;28;20021;-88
2021/08/04 08:40:27;;;;;;;2.55;1.42;;;19.20;99.90;;;;;;5020100;28;20143;-87
2021/08/04 08:42:53;;;;;;;2.20;1.20;;;19.30;99.90;;;;;;5036654;28;20025;-87
2021/08/04 08:45:20;;;;;;;1.42;1.20;;;19.50;99.90;;;;;;5036799;28;20036;-88
2021/08/04 08:47:46;;;;;;;3.45;1.52;;;19.70;99.90;;;;;;5036804;28;20035;-87
2021/08/04 08:50:13;;;;;;;2.45;1.20;;;19.80;99.90;;;;;;5054314;28;20100;-88
2021/08/04 08:52:39;;;;;;;4.55;1.60;;;19.70;99.90;;;;;;5036486;28;20116;-86
2021/08/04 08:55:07;;;;;;;2.58;1.35;;;19.80;99.90;;;;;;5054247;28;20100;-87
2021/08/04 08:57:34;;;;;;;2.53;1.50;;;19.80;99.90;;;;;;5053013;28;20021;-87
2021/08/04 09:00:00;;;;;;;3.58;1.13;;;19.80;99.90;;;;;;5036310;28;20476;-86
2021/08/04 09:02:26;;;;;;;4.28;1.55;;;20.00;99.90;;;;;;5054229;28;20481;-88
2021/08/04 09:05:06;;;;;;;1.48;1.25;;;19.90;99.90;;;;;;5036082;28;20047;-88
2021/08/04 09:07:34;;;;;;;1.92;1.27;;;20.20;99.90;;;;;;5036414;28;20017;-86
2021/08/04 09:10:00;;;;;;;1.88;1.40;;;20.50;99.90;;;;;;5035984;28;20053;-87
2021/08/04 09:12:26;;;;;;;1.52;1.15;;;20.70;99.90;;;;;;5036155;28;20507;-88
2021/08/04 09:14:52;;;;;;;1.90;1.40;;;20.80;99.90;;;;;;5035928;28;20087;-87
2021/08/04 09:17:18;;;;;;;2.20;1.23;;;20.90;99.90;;;;;;5036816;28;20083;-87
2021/08/04 09:19:51;;;;;;;1.88;1.10;;;20.80;99.90;;;;;;5035927;28;20033;-87
2021/08/04 09:22:25;;;;;;;2.40;1.60;;;21.00;99.90;;;;;;5053857;28;20032;-87
2021/08/04 09:24:58;;;;;;;1.80;1.33;;;20.90;99.90;;;;;;5052573;28;20051;-89
2021/08/04 09:27:40;;;;;;;1.80;1.30;;;20.60;99.90;;;;;;5053762;28;20531;-87
2021/08/04 09:30:07;;;;;;;2.20;1.35;;;20.70;99.90;;;;;;5035777;28;20021;-87
2021/08/04 09:32:32;;;;;;;1.42;1.33;;;20.60;99.90;;;;;;5038106;28;20029;-87
2021/08/04 09:35:10;;;;;;;1.98;1.25;;;20.30;99.90;;;;;;5054985;28;20495;-85
2021/08/04 09:37:36;;;;;;;2.35;1.40;;;20.00;99.90;;;;;;5040918;28;20377;-87
2021/08/04 09:40:03;;;;;;;1.40;1.20;;;20.10;99.90;;;;;;5040002;28;20124;-86
2021/08/04 09:42:53;;;;;;;3.15;1.20;;;20.10;99.90;;;;;;5035140;28;20396;-87
2021/08/04 09:45:27;;;;;;;1.95;1.40;;;20.00;99.90;;;;;;5035836;28;20024;-86
2021/08/04 09:47:57;;;;;;;2.13;1.33;;;20.00;99.90;;;;;;5053795;28;20051;-86
2021/08/04 09:50:23;;;;;;;2.42;1.52;;;19.90;99.90;;;;;;5036317;28;20040;-86
2021/08/04 09:52:57;;;;;;;2.00;1.30;;;19.80;99.90;;;;;;5035675;28;20036;-87
2021/08/04 09:55:23;;;;;;;2.28;1.10;;;19.90;99.90;;;;;;5053402;28;20029;-87
2021/08/04 09:57:51;;;;;;;2.90;1.00;;;19.90;99.90;;;;;;5035545;28;20031;-86
2021/08/04 10:00:19;;;;;;;3.53;1.40;;;19.70;99.90;;;;;;5035441;28;20071;-86
2021/08/04 10:02:45;;;;;;;3.60;1.40;;;19.70;99.90;;;;;;5035437;28;20507;-87
2021/08/04 10:05:24;;;;;;;4.65;1.30;;;19.90;99.90;;;;;;5053437;28;20052;-87
2021/08/04 10:08:11;;;;;;;2.03;1.30;;;20.00;99.90;;;;;;5035397;28;20120;-86
2021/08/04 10:10:50;;;;;;;3.63;1.30;;;20.00;99.90;;;;;;5053132;28;20035;-87
2021/08/04 10:13:18;;;;;;;2.95;1.27;;;20.30;99.90;;;;;;5035398;28;20045;-87
2021/08/04 10:15:52;;;;;;;1.50;1.17;;;20.60;99.90;;;;;;5035618;28;20112;-87
2021/08/04 10:18:21;;;;;;;;;;;20.70;99.90;;;;;;5035648;28;20032;-87
2021/08/04 10:20:52;;;;;;;2.40;1.23;;;20.80;99.90;;;;;;5035298;28;19950;-87
2021/08/04 10:23:19;;;;;;;1.90;1.10;;;20.90;99.90;;;;;;5035245;28;20029;-87
2021/08/04 10:25:46;;;;;;;3.63;1.17;;;20.90;99.90;;;;;;5035339;28;20450;-87
2021/08/04 10:28:13;;;;;;;1.88;1.30;;;20.80;99.90;;;;;;5035213;28;20025;-87
2021/08/04 10:30:39;;;;;;;3.03;1.33;;;20.60;99.90;;;;;;5035148;28;20116;-87
2021/08/04 10:33:05;;;;;;;2.10;1.30;;;20.50;99.90;;;;;;5035190;28;20467;-87
2021/08/04 10:35:34;;;;;;;3.17;1.30;;;20.30;99.90;;;;;;5035173;28;20021;-87
2021/08/04 10:38:00;;;;;;;5.45;1.67;;;20.20;99.90;;;;;;5034956;28;20098;-85
2021/08/04 10:40:27;;;;;;;7.95;1.50;;;20.00;99.90;;;;;;5034831;28;20515;-85
2021/08/04 10:42:54;;;;;;;2.88;1.13;;;20.00;99.90;;;;;;5035059;28;20026;-85
2021/08/04 10:45:22;;;;;;;6.22;1.60;;;20.20;99.90;;;;;;5035070;28;20497;-87
2021/08/04 10:47:56;;;;;;;3.95;1.50;;;20.30;99.90;;;;;;5034991;28;20392;-87
2021/08/04 10:50:22;;;;;;;5.43;1.50;;;20.50;99.90;;;;;;5034983;28;20074;-86
2021/08/04 10:52:56;;;;;;;2.47;1.40;;;20.90;99.90;;;;;;5039033;28;20032;-87
2021/08/04 10:55:23;;;;;;;5.07;1.42;;;21.10;99.90;;;;;;5056678;28;20021;-86
2021/08/04 10:58:04;;;;;;;5.85;1.40;;;21.10;99.90;;;;;;5038687;28;20025;-86
2021/08/04 11:00:32;;;;;;;4.45;1.75;;;20.80;99.90;;;;;;5056395;28;20052;-87
2021/08/04 11:02:58;;;;;;;1.88;1.30;;;20.70;99.90;;;;;;5038482;28;20036;-86
2021/08/04 11:05:24;;;;;;;1.60;1.02;;;20.80;99.90;;;;;;5038442;28;20028;-87
2021/08/04 11:08:13;;;;;;;3.33;1.48;;;21.10;99.90;;;;;;5038761;28;20025;-87
2021/08/04 11:10:40;;;;;;;2.08;1.20;;;21.80;99.90;;;;;;5038289;28;20057;-86
2021/08/04 11:13:05;;;;;;;2.20;1.40;;;21.70;99.90;;;;;;5038343;28;20049;-87
2021/08/04 11:15:32;;;;;;;4.00;1.23;;;21.70;99.90;;;;;;5038220;28;20399;-88
2021/08/04 11:18:07;;;;;;;1.95;1.35;;;21.40;99.90;;;;;;5056174;28;20021;-86
2021/08/04 11:20:33;;;;;;;;;;;21.20;99.90;;;;;;5039247;28;20491;-87
2021/08/04 11:22:59;;;;;;;4.28;1.40;;;21.10;99.90;;;;;;5038231;28;20291;-87
2021/08/04 11:25:35;;;;;;;3.72;1.35;;;21.60;99.90;;;;;;5055971;28;20029;-87
2021/08/04 11:28:05;;;;;;;4.60;1.55;;;21.80;99.90;;;;;;5038139;28;20032;-88
2021/08/04 11:30:45;;;;;;;1.90;1.20;;;21.80;99.90;;;;;;5037955;28;20025;-88
2021/08/04 11:33:24;;;;;;;6.88;1.40;;;21.60;99.90;;;;;;5038109;28;20028;-88
2021/08/04 11:36:17;;;;;;;2.28;1.33;;;21.90;99.90;;;;;;5037941;28;20463;-87
2021/08/04 11:38:50;;;;;;;2.13;1.25;;;22.10;99.90;;;;;;5035494;28;20079;-88
2021/08/04 11:41:28;;;;;;;3.55;1.00;;;22.10;99.90;;;;;;5036077;28;20041;-88
2021/08/04 11:43:59;;;;;;;2.22;1.10;;;22.00;99.90;;;;;;5036509;28;20026;-88
2021/08/04 11:46:38;;;;;;;1.45;0.90;;;22.10;99.90;;;;;;5020915;28;20037;-88
2021/08/04 11:49:10;;;;;;;1.98;1.10;;;21.70;99.90;;;;;;5022638;28;20025;-87
2021/08/04 11:51:37;;;;;;;2.67;0.90;;;21.50;99.90;;;;;;5019672;28;20121;-87
2021/08/04 11:54:05;;;;;;;2.00;1.00;;;21.50;99.90;;;;;;5036219;28;20488;-85
2021/08/04 11:56:30;;;;;;;3.63;1.20;;;21.30;99.90;;;;;;5017953;28;20025;-86
2021/08/04 11:59:04;;;;;;;1.52;1.00;;;21.40;99.90;;;;;;5017831;28;20025;-86
2021/08/04 12:01:30;;;;;;;5.30;1.10;;;21.20;99.90;;;;;;5017811;28;20378;-86
2021/08/04 12:04:04;;;;;;;2.88;1.45;;;21.20;99.90;;;;;;5017051;28;20033;-85
2021/08/04 12:06:30;;;;;;;4.10;1.40;;;20.90;99.90;;;;;;5035459;28;20385;-85
2021/08/04 12:09:14;;;;;;;2.60;1.23;;;20.90;99.90;;;;;;5017567;28;20029;-85
2021/08/04 12:11:41;;;;;;;2.85;1.25;;;20.90;99.90;;;;;;5017498;28;20033;-85
2021/08/04 12:14:07;;;;;;;3.13;1.30;;;20.90;99.90;;;;;;5035250;28;20025;-86
2021/08/04 12:16:41;;;;;;;3.17;1.42;;;20.90;99.90;;;;;;5017440;28;20389;-87
2021/08/04 12:19:07;;;;;;;2.10;1.38;;;20.80;99.90;;;;;;5017455;28;20022;-86
2021/08/04 12:21:33;;;;;;;5.68;1.73;;;20.80;99.90;;;;;;5017260;28;20040;-86
2021/08/04 12:23:58;;;;;;;4.25;1.38;;;20.80;99.90;;;;;;5017296;28;20032;-86
2021/08/04 12:26:24;;;;;;;3.05;1.30;;;20.60;99.90;;;;;;5017207;28;20428;-87
2021/08/04 12:28:50;;;;;;;1.90;1.25;;;20.60;99.90;;;;;;5017204;28;20025;-87
2021/08/04 12:31:16;;;;;;;3.33;1.30;;;20.40;99.90;;;;;;5017182;28;20091;-86
2021/08/04 12:33:46;;;;;;;2.13;1.20;;;20.30;99.90;;;;;;5017143;28;20017;-87
2021/08/04 12:38:46;;;;;;;2.85;0.95;;;20.20;99.90;;;;;;5034753;28;20240;-87
2021/08/04 12:41:18;;;;;;;1.90;1.15;;;20.10;99.90;;;;;;5017051;28;20033;-87
2021/08/04 12:43:44;;;;;;;1.48;1.20;;;20.10;99.90;;;;;;5016971;28;20125;-87
2021/08/04 12:46:11;;;;;;;2.55;1.08;;;20.10;99.90;;;;;;5016933;28;20497;-87
2021/08/04 12:48:48;;;;;;;2.17;1.10;;;20.10;99.90;;;;;;5017072;28;20035;-86
2021/08/04 12:51:22;;;;;;;2.33;1.23;;;19.90;99.90;;;;;;5016690;28;20033;-86
2021/08/04 12:53:59;;;;;;;3.22;1.50;;;19.80;99.90;;;;;;5016753;28;20041;-86
2021/08/04 12:56:32;;;;;;;2.25;1.40;;;19.80;99.90;;;;;;5016613;28;20026;-86